Ms Folla 2 — LLPD — position and weather

sailwx.info

Track history (hours):
 
Tides and Currents Weather Stations Pressure Air Temp Water Temp Dewpoint Dewpoint Depression Visibility Wind Speed Wind Dir Waves Ship Positions

Ms Folla 2

Last reported at 2016-May-02 10:33 UTC. Time now 2016-May-02 10:48 UTC.
Position N 67°17' E 014°21'.

Length 52 m; draft 5.5 m.

Type: Ship. MMSI: 258253000.

Date/timePositionNaut miles runAvg speedWind from/ knotsBaromVisibWave heightAir tempDewpointWater temp
2016-May-02 10:33N 67°17' E 014°21'4 4.4
2016-May-02 09:34N 67°21' E 014°24'98 5.7
2016-May-01 16:13N 68°44' E 016°44'710.9
2016-May-01 15:31N 68°50' E 016°55'1111.0
2016-May-01 14:29N 68°60' E 017°13'1010.7
2016-May-01 13:34N 69°06' E 017°33'1111.0
2016-May-01 12:33N 69°11' E 018°01'8 0.3
2016-Apr-30 11:24N 69°19' E 017°60'5 5.9
2016-Apr-30 10:33N 69°14' E 017°58'5 5.3
2016-Apr-30 09:33N 69°09' E 017°53'1110.8
2016-Apr-30 08:33N 69°02' E 017°31'159 6.1
2016-Apr-29 06:33N 66°54' E 013°20'2310.7
2016-Apr-29 04:26N 66°33' E 013°01'1011.1
2016-Apr-29 03:33N 66°23' E 012°59'69 8.6
2016-Apr-28 19:29N 65°18' E 011°59'1011.3
2016-Apr-28 18:33N 65°09' E 011°50'1110.9
2016-Apr-28 17:33N 64°59' E 011°36'1111.1
2016-Apr-28 16:33N 64°52' E 011°16'1010.1
2016-Apr-28 15:33N 64°43' E 011°07'5 0.2
2016-Apr-27 08:33N 64°38' E 011°10'1010.3
2016-Apr-27 07:33N 64°48' E 011°07'5 4.9
2016-Apr-27 06:33N 64°52' E 011°15'0 0.0
2016-Apr-27 05:33N 64°52' E 011°15'0 0.0
2016-Apr-27 04:33N 64°52' E 011°15'0 0.0
2016-Apr-27 03:33N 64°52' E 011°15'0 0.0
2016-Apr-27 02:33N 64°52' E 011°15'0 0.0
2016-Apr-27 01:33N 64°52' E 011°15'0 0.0
2016-Apr-27 00:33N 64°52' E 011°15'0 0.0
2016-Apr-26 23:33N 64°52' E 011°15'0 0.0
2016-Apr-26 22:33N 64°52' E 011°15'0 0.0
2016-Apr-26 21:33N 64°52' E 011°15'0 0.0
2016-Apr-26 20:33N 64°52' E 011°15'0 0.0
2016-Apr-26 19:33N 64°52' E 011°15'0 0.0
2016-Apr-26 18:33N 64°52' E 011°15'1 0.8
2016-Apr-26 17:34N 64°52' E 011°16'1111.2
2016-Apr-26 16:33N 64°59' E 011°36'7 7.0
2016-Apr-26 15:33N 65°05' E 011°44'8 6.7
2016-Apr-26 14:23N 65°12' E 011°53'55 6.7
2016-Apr-26 06:09N 66°04' E 012°38'610.5
2016-Apr-26 05:33N 66°10' E 012°39'1010.5
2016-Apr-26 04:33N 66°21' E 012°41'3 3.2
2016-Apr-26 03:33N 66°24' E 012°39'10 9.9
2016-Apr-26 02:33N 66°30' E 012°59'13 9.9
2016-Apr-26 01:14N 66°42' E 013°10'15 0.9
2016-Apr-25 09:28N 66°55' E 013°30'9 9.9
2016-Apr-25 08:33N 67°02' E 013°45'9 9.2
2016-Apr-25 07:33N 67°09' E 014°01'0 0.0
2016-Apr-25 06:33N 67°09' E 014°01'9 9.2
2016-Apr-25 05:33N 67°15' E 014°17'3 3.2
2016-Apr-25 04:33N 67°18' E 014°22'1010.3
2016-Apr-25 03:33N 67°28' E 014°28'1110.9
2016-Apr-25 02:32N 67°39' E 014°31'8810.8
2016-Apr-24 18:22N 68°49' E 016°54'2111.3
2016-Apr-24 16:33N 69°06' E 017°28'1211.5
2016-Apr-24 15:33N 69°10' E 017°57'8 0.3
2016-Apr-23 14:33N 69°18' E 017°58'5 4.7
2016-Apr-23 13:33N 69°14' E 017°58'3 3.5
2016-Apr-23 12:33N 69°10' E 017°58'1111.0
2016-Apr-23 11:33N 69°03' E 017°34'26 6.2
2016-Apr-23 07:21N 68°44' E 016°45'74 4.6
2016-Apr-22 15:16N 68°06' E 013°55'  
Track history (hours):
 
Tides and Currents Weather Stations Pressure Air Temp Water Temp Dewpoint Dewpoint Depression Visibility Wind Speed Wind Dir Waves Ship Positions

Ms Folla 2

Last reported at 2016-May-02 10:33 UTC. Time now 2016-May-02 10:48 UTC.
Position N 67°17' E 014°21'.

Length 52 m; draft 5.5 m.

Type: Ship. MMSI: 258253000.

Date/timePositionNaut miles runAvg speedWind from/ knotsBaromVisibWave heightAir tempDewpointWater temp
2016-May-02 10:33N 67°17' E 014°21'4 4.4
2016-May-02 09:34N 67°21' E 014°24'98 5.7
2016-May-01 16:13N 68°44' E 016°44'710.9
2016-May-01 15:31N 68°50' E 016°55'1111.0
2016-May-01 14:29N 68°60' E 017°13'1010.7
2016-May-01 13:34N 69°06' E 017°33'1111.0
2016-May-01 12:33N 69°11' E 018°01'8 0.3
2016-Apr-30 11:24N 69°19' E 017°60'5 5.9
2016-Apr-30 10:33N 69°14' E 017°58'5 5.3
2016-Apr-30 09:33N 69°09' E 017°53'1110.8
2016-Apr-30 08:33N 69°02' E 017°31'159 6.1
2016-Apr-29 06:33N 66°54' E 013°20'2310.7
2016-Apr-29 04:26N 66°33' E 013°01'1011.1
2016-Apr-29 03:33N 66°23' E 012°59'69 8.6
2016-Apr-28 19:29N 65°18' E 011°59'1011.3
2016-Apr-28 18:33N 65°09' E 011°50'1110.9
2016-Apr-28 17:33N 64°59' E 011°36'1111.1
2016-Apr-28 16:33N 64°52' E 011°16'1010.1
2016-Apr-28 15:33N 64°43' E 011°07'5 0.2
2016-Apr-27 08:33N 64°38' E 011°10'1010.3
2016-Apr-27 07:33N 64°48' E 011°07'5 4.9
2016-Apr-27 06:33N 64°52' E 011°15'0 0.0
2016-Apr-27 05:33N 64°52' E 011°15'0 0.0
2016-Apr-27 04:33N 64°52' E 011°15'0 0.0
2016-Apr-27 03:33N 64°52' E 011°15'0 0.0
2016-Apr-27 02:33N 64°52' E 011°15'0 0.0
2016-Apr-27 01:33N 64°52' E 011°15'0 0.0
2016-Apr-27 00:33N 64°52' E 011°15'0 0.0
2016-Apr-26 23:33N 64°52' E 011°15'0 0.0
2016-Apr-26 22:33N 64°52' E 011°15'0 0.0
2016-Apr-26 21:33N 64°52' E 011°15'0 0.0
2016-Apr-26 20:33N 64°52' E 011°15'0 0.0
2016-Apr-26 19:33N 64°52' E 011°15'0 0.0
2016-Apr-26 18:33N 64°52' E 011°15'1 0.8
2016-Apr-26 17:34N 64°52' E 011°16'1111.2
2016-Apr-26 16:33N 64°59' E 011°36'7 7.0
2016-Apr-26 15:33N 65°05' E 011°44'8 6.7
2016-Apr-26 14:23N 65°12' E 011°53'55 6.7
2016-Apr-26 06:09N 66°04' E 012°38'610.5
2016-Apr-26 05:33N 66°10' E 012°39'1010.5
2016-Apr-26 04:33N 66°21' E 012°41'3 3.2
2016-Apr-26 03:33N 66°24' E 012°39'10 9.9
2016-Apr-26 02:33N 66°30' E 012°59'13 9.9
2016-Apr-26 01:14N 66°42' E 013°10'15 0.9
2016-Apr-25 09:28N 66°55' E 013°30'9 9.9
2016-Apr-25 08:33N 67°02' E 013°45'9 9.2
2016-Apr-25 07:33N 67°09' E 014°01'0 0.0
2016-Apr-25 06:33N 67°09' E 014°01'9 9.2
2016-Apr-25 05:33N 67°15' E 014°17'3 3.2
2016-Apr-25 04:33N 67°18' E 014°22'1010.3
2016-Apr-25 03:33N 67°28' E 014°28'1110.9
2016-Apr-25 02:32N 67°39' E 014°31'8810.8
2016-Apr-24 18:22N 68°49' E 016°54'2111.3
2016-Apr-24 16:33N 69°06' E 017°28'1211.5
2016-Apr-24 15:33N 69°10' E 017°57'8 0.3
2016-Apr-23 14:33N 69°18' E 017°58'5 4.7
2016-Apr-23 13:33N 69°14' E 017°58'3 3.5
2016-Apr-23 12:33N 69°10' E 017°58'1111.0
2016-Apr-23 11:33N 69°03' E 017°34'26 6.2
2016-Apr-23 07:21N 68°44' E 016°45'74 4.6
2016-Apr-22 15:16N 68°06' E 013°55'  

Dump ship's entire track history